Time;durP1;ratioP1;P1;durP2;ratioP2;P2;SDS_P1;SDS_P2;PMS_P1;PMS_P2;Temp;Humidity;BMP_temperature;BMP_pressure;BME280_temperature;BME280_humidity;BME280_pressure;Samples;Min_cycle;Max_cycle;Signal;HPM_P1;HPM_P2
2022/04/19 00:01:16;;;;;;;12.95;6.80;;;9.20;99.90;;;;;;5043338;28;20033;-78
2022/04/19 00:03:45;;;;;;;14.18;6.15;;;9.10;99.90;;;;;;5036574;28;20042;-79
2022/04/19 00:06:10;;;;;;;11.30;6.88;;;9.00;99.90;;;;;;5022486;28;20041;-81
2022/04/19 00:08:36;;;;;;;11.65;6.60;;;9.00;99.90;;;;;;5022979;28;20034;-80
2022/04/19 00:11:04;;;;;;;9.88;6.95;;;9.00;99.90;;;;;;5040237;28;20037;-80
2022/04/19 00:13:30;;;;;;;13.75;7.25;;;9.00;99.90;;;;;;5056962;28;20087;-81
2022/04/19 00:15:58;;;;;;;10.93;7.22;;;8.90;99.90;;;;;;5042273;28;20051;-81
2022/04/19 00:18:25;;;;;;;10.55;7.05;;;9.00;99.90;;;;;;5043782;28;20043;-78
2022/04/19 00:20:51;;;;;;;9.70;6.90;;;9.00;99.90;;;;;;5040303;28;20040;-80
2022/04/19 00:23:18;;;;;;;16.73;7.10;;;8.90;99.90;;;;;;5026247;28;20043;-78
2022/04/19 00:25:48;;;;;;;10.07;7.20;;;9.00;99.90;;;;;;5041766;28;20049;-81
2022/04/19 00:28:15;;;;;;;13.35;7.60;;;9.00;99.90;;;;;;5022268;28;20506;-77
2022/04/19 00:30:42;;;;;;;14.52;8.50;;;9.10;99.90;;;;;;5045224;28;20076;-77
2022/04/19 00:33:09;;;;;;;10.15;7.07;;;8.90;99.90;;;;;;5030573;28;20044;-80
2022/04/19 00:35:36;;;;;;;12.73;7.40;;;9.00;99.90;;;;;;5032132;28;20353;-79
2022/04/19 00:38:02;;;;;;;11.63;7.60;;;8.90;99.90;;;;;;5045121;28;20136;-80
2022/04/19 00:40:28;;;;;;;10.75;7.60;;;9.00;99.90;;;;;;5047736;28;20124;-81
2022/04/19 00:42:54;;;;;;;13.20;8.32;;;8.90;99.90;;;;;;5057349;28;20088;-77
2022/04/19 00:45:24;;;;;;;13.40;7.95;;;8.80;99.90;;;;;;5028041;28;20037;-78
2022/04/19 00:47:54;;;;;;;11.90;7.50;;;8.80;99.90;;;;;;5047006;28;20048;-80
2022/04/19 00:50:20;;;;;;;12.05;7.72;;;8.80;99.90;;;;;;5045094;28;20091;-81
2022/04/19 00:52:46;;;;;;;15.63;7.60;;;8.90;99.90;;;;;;5043711;28;20407;-79
2022/04/19 00:55:12;;;;;;;13.70;7.82;;;8.70;99.90;;;;;;5021839;28;20369;-79
2022/04/19 00:57:40;;;;;;;11.57;7.70;;;8.60;99.90;;;;;;5023388;28;20045;-79
2022/04/19 01:00:08;;;;;;;11.07;7.32;;;8.60;99.90;;;;;;5026875;28;20128;-78
2022/04/19 01:02:36;;;;;;;12.75;7.75;;;8.60;99.90;;;;;;5043093;28;20033;-78
2022/04/19 01:05:03;;;;;;;14.02;8.52;;;8.60;99.90;;;;;;5031859;28;20029;-79
2022/04/19 01:07:29;;;;;;;11.98;8.00;;;8.50;99.90;;;;;;5028939;28;20049;-79
2022/04/19 01:09:55;;;;;;;12.65;8.00;;;8.40;99.90;;;;;;5035645;28;20062;-78
2022/04/19 01:15:22;;;;;;;13.20;7.75;;;8.40;99.90;;;;;;4998202;28;20813;-76
2022/04/19 01:17:48;;;;;;;12.63;8.00;;;8.30;99.90;;;;;;4977785;28;20050;-79
2022/04/19 01:20:14;;;;;;;11.77;7.90;;;8.40;99.90;;;;;;4984657;28;20039;-78
2022/04/19 01:22:43;;;;;;;11.57;7.72;;;8.20;99.90;;;;;;4965352;28;20067;-77
2022/04/19 01:25:10;;;;;;;14.20;8.50;;;8.20;99.90;;;;;;4972022;28;20061;-82
2022/04/19 01:27:36;;;;;;;15.90;8.60;;;8.10;99.90;;;;;;4953502;28;20123;-80
2022/04/19 01:30:08;;;;;;;14.50;8.55;;;8.00;99.90;;;;;;4986198;28;20422;-77
2022/04/19 01:32:34;;;;;;;12.80;7.63;;;8.00;99.90;;;;;;4964654;28;20038;-77
2022/04/19 01:35:15;;;;;;;13.90;8.40;;;8.00;99.90;;;;;;4972260;28;20397;-82
2022/04/19 01:37:45;;;;;;;15.35;8.32;;;8.00;99.90;;;;;;4973223;28;20057;-81
2022/04/19 01:40:17;;;;;;;13.77;8.45;;;8.10;99.90;;;;;;4960530;28;20052;-82
2022/04/19 01:42:58;;;;;;;13.82;8.73;;;7.90;99.90;;;;;;4962549;28;20055;-80
2022/04/19 01:45:26;;;;;;;13.20;8.20;;;7.90;99.90;;;;;;4946395;28;20046;-79
2022/04/19 01:47:53;;;;;;;14.10;8.07;;;7.80;99.90;;;;;;4951728;28;20176;-80
2022/04/19 01:50:20;;;;;;;16.33;9.18;;;7.80;99.90;;;;;;5007287;28;20714;-78
2022/04/19 01:52:47;;;;;;;12.32;7.72;;;7.80;99.90;;;;;;5027088;28;20029;-80
2022/04/19 01:55:16;;;;;;;12.10;7.93;;;7.80;99.90;;;;;;5024076;28;20041;-80
2022/04/19 01:57:48;;;;;;;11.77;8.25;;;7.70;99.90;;;;;;5029375;28;20037;-81
2022/04/19 02:00:14;;;;;;;15.57;8.32;;;7.70;99.90;;;;;;5044571;28;20049;-78
2022/04/19 02:02:40;;;;;;;12.63;8.20;;;7.70;99.90;;;;;;5040131;28;20045;-77
2022/04/19 02:05:07;;;;;;;13.73;8.15;;;7.70;99.90;;;;;;5028961;28;20125;-80
2022/04/19 02:07:37;;;;;;;12.48;8.30;;;7.60;99.90;;;;;;5042011;28;20072;-82
2022/04/19 02:10:04;;;;;;;15.75;8.30;;;8.00;99.90;;;;;;5045134;28;20468;-77
2022/04/19 02:12:31;;;;;;;13.73;8.27;;;7.50;99.90;;;;;;5028989;28;20045;-81
2022/04/19 02:14:57;;;;;;;13.05;8.10;;;7.50;99.90;;;;;;5026958;28;20083;-80
2022/04/19 02:17:23;;;;;;;13.52;8.18;;;7.50;99.90;;;;;;5028357;28;20033;-79
2022/04/19 02:19:58;;;;;;;15.35;8.40;;;7.50;99.90;;;;;;5027931;28;20112;-79
2022/04/19 02:22:23;;;;;;;16.23;8.13;;;7.40;99.90;;;;;;5027064;28;20064;-78
2022/04/19 02:24:49;;;;;;;11.73;8.23;;;7.40;99.90;;;;;;5025736;28;20141;-80
2022/04/19 02:27:15;;;;;;;11.85;8.15;;;7.70;99.90;;;;;;5038980;28;20543;-77
2022/04/19 02:29:40;;;;;;;12.35;8.70;;;7.20;99.90;;;;;;5038816;28;20043;-82
2022/04/19 02:32:09;;;;;;;10.75;7.95;;;7.20;99.90;;;;;;5043574;28;20061;-80
2022/04/19 02:34:35;;;;;;;12.52;8.45;;;7.20;99.90;;;;;;5038863;28;20056;-78
2022/04/19 02:37:00;;;;;;;14.85;8.45;;;7.10;99.90;;;;;;5031743;28;20368;-81
2022/04/19 02:39:26;;;;;;;13.93;8.38;;;7.10;99.90;;;;;;5048482;28;20095;-79
2022/04/19 02:41:53;;;;;;;14.90;8.80;;;7.10;99.90;;;;;;5055713;28;20041;-76
2022/04/19 02:44:18;;;;;;;12.68;8.70;;;7.20;99.90;;;;;;5054013;28;20068;-79
2022/04/19 02:46:44;;;;;;;13.25;8.57;;;7.30;99.90;;;;;;5044174;28;20049;-81
2022/04/19 02:49:10;;;;;;;12.77;8.40;;;7.30;99.90;;;;;;5042885;28;20116;-82
2022/04/19 02:51:35;;;;;;;14.60;8.70;;;7.30;99.90;;;;;;5026866;28;20033;-78
2022/04/19 02:54:01;;;;;;;14.00;8.32;;;7.20;99.90;;;;;;5009708;28;20556;-79
2022/04/19 02:56:27;;;;;;;13.98;8.63;;;7.30;99.90;;;;;;5025311;28;20053;-79
2022/04/19 02:58:53;;;;;;;14.07;8.35;;;7.30;99.90;;;;;;5042644;28;20044;-80
2022/04/19 03:01:19;;;;;;;13.43;8.10;;;7.20;99.90;;;;;;5016992;28;20049;-78
2022/04/19 03:03:45;;;;;;;15.00;8.57;;;7.30;99.90;;;;;;5026139;28;20120;-78
2022/04/19 03:06:11;;;;;;;10.70;7.75;;;7.20;99.90;;;;;;5024899;28;20032;-79
2022/04/19 03:08:37;;;;;;;13.05;8.50;;;7.20;99.90;;;;;;5023673;28;20068;-78
2022/04/19 03:11:03;;;;;;;12.18;8.07;;;7.10;99.90;;;;;;5042610;28;20452;-82
2022/04/19 03:13:30;;;;;;;18.67;8.80;;;7.10;99.90;;;;;;5038561;28;20087;-81
2022/04/19 03:15:56;;;;;;;12.60;8.10;;;7.10;99.90;;;;;;5021907;28;20068;-80
2022/04/19 03:18:21;;;;;;;14.45;8.48;;;7.10;99.90;;;;;;5031919;28;20495;-80
2022/04/19 03:20:47;;;;;;;13.95;8.38;;;7.30;99.90;;;;;;5036023;28;20383;-79
2022/04/19 03:28:46;;;;;;;13.65;8.52;;;7.00;99.90;;;;;;5043032;28;20055;-79
2022/04/19 03:31:15;;;;;;;11.32;8.13;;;7.00;99.90;;;;;;5039037;28;20032;-81
2022/04/19 03:33:41;;;;;;;12.57;7.97;;;7.10;99.90;;;;;;5040458;28;20041;-80
2022/04/19 03:36:10;;;;;;;13.80;8.32;;;6.90;99.90;;;;;;5044668;28;20329;-79
2022/04/19 03:38:36;;;;;;;13.63;8.10;;;7.00;99.90;;;;;;5023081;28;20048;-78
2022/04/19 03:41:03;;;;;;;12.00;8.05;;;6.90;99.90;;;;;;5025914;28;20199;-81
2022/04/19 03:43:28;;;;;;;14.45;8.23;;;6.90;99.90;;;;;;5039928;28;20049;-77
2022/04/19 03:45:54;;;;;;;12.25;7.28;;;6.90;99.90;;;;;;5040440;28;20037;-82
2022/04/19 03:48:20;;;;;;;11.75;7.88;;;6.90;99.90;;;;;;5010355;28;20072;-79
2022/04/19 03:50:45;;;;;;;13.38;8.23;;;6.90;99.90;;;;;;5024163;28;20040;-78
2022/04/19 03:53:11;;;;;;;12.57;7.72;;;6.80;99.90;;;;;;5041600;28;20041;-80
2022/04/19 03:55:37;;;;;;;12.48;8.15;;;6.80;99.90;;;;;;5042345;28;20041;-79
2022/04/19 03:58:03;;;;;;;11.27;7.97;;;6.80;99.90;;;;;;5024281;28;20063;-78
2022/04/19 04:00:29;;;;;;;14.15;7.47;;;6.70;99.90;;;;;;5029535;28;20040;-79
2022/04/19 04:02:55;;;;;;;12.02;8.00;;;6.70;99.90;;;;;;5048080;28;20037;-80
2022/04/19 04:05:24;;;;;;;12.27;7.57;;;6.70;99.90;;;;;;5038735;28;20128;-82
2022/04/19 04:07:50;;;;;;;12.27;7.75;;;6.70;99.90;;;;;;5032612;28;20090;-78
2022/04/19 04:10:16;;;;;;;12.13;8.15;;;6.70;99.90;;;;;;5042320;28;20041;-79
2022/04/19 04:12:42;;;;;;;16.58;7.93;;;6.60;99.90;;;;;;5040393;28;20088;-78
2022/04/19 04:15:08;;;;;;;13.77;8.10;;;6.60;99.90;;;;;;5044333;28;20040;-81
2022/04/19 04:17:33;;;;;;;13.93;7.72;;;6.60;99.90;;;;;;5047349;28;20045;-77
2022/04/19 04:19:59;;;;;;;13.95;7.85;;;6.60;99.90;;;;;;5046196;28;20041;-79
2022/04/19 04:22:25;;;;;;;13.48;7.90;;;6.60;99.90;;;;;;5043863;28;20033;-78
2022/04/19 04:24:51;;;;;;;14.02;7.65;;;6.60;99.90;;;;;;5043439;28;20033;-80
2022/04/19 04:27:17;;;;;;;16.35;8.35;;;6.60;99.90;;;;;;5044248;28;20141;-79
2022/04/19 04:29:43;;;;;;;12.15;7.90;;;6.50;99.90;;;;;;5037659;28;20119;-79
2022/04/19 04:32:08;;;;;;;11.80;7.38;;;6.50;99.90;;;;;;5046265;28;20048;-79
2022/04/19 04:34:34;;;;;;;11.95;7.88;;;6.50;99.90;;;;;;5049272;28;20037;-78
2022/04/19 04:37:00;;;;;;;17.90;7.93;;;6.60;99.90;;;;;;5043744;28;20041;-82
2022/04/19 04:39:25;;;;;;;12.85;7.97;;;6.50;99.90;;;;;;5029013;28;20132;-81
2022/04/19 04:41:51;;;;;;;13.30;7.68;;;6.40;99.90;;;;;;5041872;28;20044;-81
2022/04/19 04:44:17;;;;;;;13.75;8.02;;;6.40;99.90;;;;;;5046866;28;20033;-79
2022/04/19 04:49:35;;;;;;;12.85;8.10;;;6.40;99.90;;;;;;5043987;28;20045;-78
2022/04/19 04:52:08;;;;;;;14.80;8.80;;;6.50;99.90;;;;;;5026577;28;20048;-80
2022/04/19 04:54:34;;;;;;;13.43;8.45;;;6.50;99.90;;;;;;5023640;28;20036;-81
2022/04/19 04:57:02;;;;;;;18.75;8.27;;;6.50;99.90;;;;;;5041904;28;20127;-79
2022/04/19 04:59:29;;;;;;;14.55;8.50;;;6.50;99.90;;;;;;5045759;28;20048;-78
2022/04/19 05:02:01;;;;;;;19.17;8.55;;;6.60;99.90;;;;;;5029071;28;20039;-87
2022/04/19 05:04:27;;;;;;;18.52;5.65;;;6.60;99.90;;;;;;5047483;28;20033;-75
2022/04/19 05:06:52;;;;;;;16.55;8.52;;;7.90;99.90;;;;;;5047292;28;20047;-81
2022/04/19 05:09:18;;;;;;;15.45;8.68;;;7.60;99.90;;;;;;5046182;28;20365;-79
2022/04/19 05:11:46;;;;;;;19.45;8.60;;;7.40;99.90;;;;;;5025966;28;20043;-80
2022/04/19 05:14:13;;;;;;;17.77;8.88;;;7.30;99.90;;;;;;5043259;28;20032;-80
2022/04/19 05:16:39;;;;;;;12.68;7.70;;;7.20;99.90;;;;;;5044587;28;20120;-79
2022/04/19 05:19:05;;;;;;;18.95;9.15;;;7.20;99.90;;;;;;5027600;28;20123;-81
2022/04/19 05:21:31;;;;;;;21.83;8.68;;;7.20;99.90;;;;;;5045428;28;20041;-79
2022/04/19 05:23:56;;;;;;;21.60;8.82;;;7.40;99.90;;;;;;5023409;28;20048;-81
2022/04/19 05:26:28;;;;;;;16.98;8.40;;;7.80;99.90;;;;;;5029035;28;20037;-79
2022/04/19 05:28:54;;;;;;;14.95;9.00;;;7.30;99.90;;;;;;5049578;28;20041;-80
2022/04/19 05:31:20;;;;;;;19.10;8.75;;;7.70;99.90;;;;;;5045583;28;20111;-80
2022/04/19 05:37:38;;;;;;;19.65;9.10;;;7.40;99.90;;;;;;5056966;28;20395;-86
2022/04/19 05:40:07;;;;;;;16.58;8.63;;;7.50;99.90;;;;;;5041320;28;20033;-77
2022/04/19 05:42:33;;;;;;;19.05;9.77;;;7.60;99.90;;;;;;5026339;28;20037;-80
2022/04/19 05:44:59;;;;;;;22.73;9.70;;;7.80;99.90;;;;;;5003319;28;20092;-79
2022/04/19 05:47:25;;;;;;;25.02;9.77;;;8.10;99.90;;;;;;5005419;28;20095;-79
2022/04/19 05:49:53;;;;;;;21.30;9.43;;;7.70;99.90;;;;;;5018446;28;20079;-78
2022/04/19 05:52:20;;;;;;;21.63;9.73;;;7.80;99.90;;;;;;5018964;28;20441;-78
2022/04/19 05:54:45;;;;;;;16.90;9.10;;;7.80;99.90;;;;;;5015510;28;20050;-79
2022/04/19 05:57:11;;;;;;;17.48;8.75;;;8.00;99.90;;;;;;5003756;28;20041;-80
2022/04/19 05:59:37;;;;;;;17.27;9.50;;;8.10;99.90;;;;;;4999191;28;20117;-78
2022/04/19 06:05:08;;;;;;;15.17;8.70;;;8.20;99.90;;;;;;4936576;28;20674;-79
2022/04/19 06:07:44;;;;;;;16.00;9.20;;;8.30;99.90;;;;;;4930145;28;20345;-78
2022/04/19 06:10:09;;;;;;;16.42;9.30;;;8.30;99.90;;;;;;4928373;28;20498;-80
2022/04/19 06:12:35;;;;;;;18.55;10.00;;;8.40;99.90;;;;;;4933502;28;20054;-80
2022/04/19 06:15:01;;;;;;;22.10;9.65;;;8.80;99.90;;;;;;4931970;28;20039;-80
2022/04/19 06:17:32;;;;;;;26.77;8.50;;;8.60;99.90;;;;;;4914445;29;20083;-80
2022/04/19 06:20:00;;;;;;;18.40;9.07;;;8.60;99.90;;;;;;4914822;28;20459;-80
2022/04/19 06:22:25;;;;;;;19.67;8.45;;;8.70;99.90;;;;;;4929601;28;20126;-79
2022/04/19 06:24:51;;;;;;;16.58;8.90;;;8.80;99.90;;;;;;4928807;28;20142;-80
2022/04/19 06:27:17;;;;;;;15.75;8.65;;;8.90;99.90;;;;;;4926701;28;20064;-80
2022/04/19 06:29:42;;;;;;;16.40;8.50;;;9.00;99.90;;;;;;4926373;28;20055;-82
2022/04/19 06:32:09;;;;;;;17.92;9.02;;;8.90;99.90;;;;;;4918430;28;20054;-84
2022/04/19 06:34:34;;;;;;;22.10;8.88;;;9.00;99.90;;;;;;4931393;29;20128;-79
2022/04/19 06:37:01;;;;;;;15.52;8.60;;;9.10;99.90;;;;;;4986209;28;20057;-80
2022/04/19 06:39:27;;;;;;;18.88;8.77;;;9.20;99.90;;;;;;4995831;28;20045;-78
2022/04/19 06:41:54;;;;;;;21.73;8.77;;;9.30;99.90;;;;;;4979672;28;20132;-82
2022/04/19 06:44:21;;;;;;;20.00;8.13;;;9.30;99.90;;;;;;5002962;28;20049;-79
2022/04/19 06:46:49;;;;;;;16.92;8.88;;;9.40;99.90;;;;;;4993598;28;20274;-78
2022/04/19 06:49:16;;;;;;;16.65;8.52;;;9.60;99.90;;;;;;5009267;28;20049;-79
2022/04/19 06:51:45;;;;;;;20.20;8.52;;;9.70;99.90;;;;;;5017181;28;20046;-81
2022/04/19 06:54:12;;;;;;;17.27;8.27;;;9.80;99.90;;;;;;5013699;28;20046;-79
2022/04/19 06:56:38;;;;;;;24.50;8.70;;;9.90;99.90;;;;;;4998497;28;20042;-80
2022/04/19 06:59:04;;;;;;;15.27;8.40;;;10.00;99.90;;;;;;5016550;28;20045;-80
2022/04/19 07:01:30;;;;;;;12.75;7.72;;;10.10;99.90;;;;;;5018912;28;20056;-77
2022/04/19 07:03:56;;;;;;;14.75;7.82;;;10.20;99.90;;;;;;5002073;28;20041;-77
2022/04/19 07:06:22;;;;;;;16.40;7.65;;;10.30;99.90;;;;;;5025708;28;20099;-79
2022/04/19 07:08:48;;;;;;;16.50;7.97;;;10.40;99.90;;;;;;5026199;28;20053;-78
2022/04/19 07:11:15;;;;;;;15.55;7.43;;;10.50;99.90;;;;;;5027221;28;20057;-79
2022/04/19 07:13:42;;;;;;;12.68;7.20;;;10.80;99.90;;;;;;4990407;28;20049;-78
2022/04/19 07:16:09;;;;;;;14.55;7.63;;;10.80;99.90;;;;;;5012366;28;20057;-77
2022/04/19 07:18:38;;;;;;;13.15;7.13;;;10.80;99.90;;;;;;5008919;28;20041;-84
2022/04/19 07:26:40;;;;;;;11.75;7.20;;;11.00;99.90;;;;;;5003920;28;20103;-81
2022/04/19 07:29:18;;;;;;;17.15;7.32;;;11.00;99.90;;;;;;5007298;28;20487;-81
2022/04/19 07:31:48;;;;;;;16.73;7.20;;;11.20;99.90;;;;;;4989356;28;20200;-78
2022/04/19 07:34:14;;;;;;;14.15;7.20;;;11.20;99.90;;;;;;4993337;28;20033;-78
2022/04/19 07:36:41;;;;;;;15.88;7.05;;;11.30;99.90;;;;;;4990340;28;20496;-79
2022/04/19 07:39:13;;;;;;;13.07;6.50;;;11.30;99.90;;;;;;4971026;28;20052;-78
2022/04/19 07:41:39;;;;;;;10.02;6.07;;;11.40;99.90;;;;;;5005950;28;20412;-78
2022/04/19 07:44:06;;;;;;;13.57;6.28;;;11.40;99.90;;;;;;5013476;28;20080;-76
2022/04/19 07:46:35;;;;;;;9.63;6.03;;;11.50;99.90;;;;;;5030827;28;20041;-81
2022/04/19 07:49:02;;;;;;;15.50;6.15;;;11.60;99.90;;;;;;5027542;28;20048;-81
2022/04/19 07:51:29;;;;;;;12.52;6.60;;;11.90;99.90;;;;;;5052641;28;20376;-86
2022/04/19 07:53:55;;;;;;;11.73;6.55;;;11.70;99.90;;;;;;5049124;28;20450;-80
2022/04/19 07:56:21;;;;;;;12.38;6.13;;;11.80;99.90;;;;;;5023639;28;20064;-80
2022/04/19 07:58:48;;;;;;;11.38;5.95;;;11.80;99.90;;;;;;5053622;28;20048;-80
2022/04/19 08:01:18;;;;;;;12.80;5.00;;;11.80;99.90;;;;;;5042781;28;20501;-78
2022/04/19 08:03:44;;;;;;;9.82;6.03;;;12.00;99.90;;;;;;5069414;28;20100;-77
2022/04/19 08:06:10;;;;;;;7.95;4.50;;;12.00;99.90;;;;;;5051923;28;20052;-79
2022/04/19 08:08:36;;;;;;;9.30;5.13;;;12.20;99.90;;;;;;5056817;28;20044;-81
2022/04/19 08:11:03;;;;;;;12.27;4.97;;;12.20;99.90;;;;;;5067833;28;20116;-81
2022/04/19 08:13:30;;;;;;;6.35;3.95;;;12.30;99.90;;;;;;5042590;28;20048;-81
2022/04/19 08:15:56;;;;;;;8.77;4.60;;;12.40;99.90;;;;;;5046861;28;20045;-79
2022/04/19 08:18:22;;;;;;;12.90;4.57;;;12.40;99.90;;;;;;5053307;28;20043;-78
2022/04/19 08:20:50;;;;;;;9.55;4.15;;;12.40;99.90;;;;;;5033401;28;20124;-80
2022/04/19 08:23:16;;;;;;;5.90;4.07;;;12.50;99.90;;;;;;5040821;28;20076;-77
2022/04/19 08:25:45;;;;;;;9.57;4.22;;;12.50;99.90;;;;;;5054082;28;20502;-79
2022/04/19 08:28:10;;;;;;;4.95;3.30;;;12.60;99.90;;;;;;5038408;28;20045;-78
2022/04/19 08:30:37;;;;;;;10.68;3.70;;;12.70;99.90;;;;;;5045007;28;20103;-78
2022/04/19 08:33:02;;;;;;;4.93;3.30;;;13.00;99.90;;;;;;5018835;28;20051;-78
2022/04/19 08:35:28;;;;;;;8.52;3.90;;;12.80;99.90;;;;;;5033464;28;20049;-81
2022/04/19 08:37:54;;;;;;;7.68;3.30;;;12.90;99.90;;;;;;5050758;28;20120;-80
2022/04/19 08:40:20;;;;;;;18.90;3.72;;;13.00;99.90;;;;;;5035466;28;20501;-81
2022/04/19 08:42:47;;;;;;;10.57;3.00;;;13.10;99.90;;;;;;5051570;28;20037;-80
2022/04/19 08:45:18;;;;;;;4.57;2.85;;;13.20;99.90;;;;;;5031968;28;20044;-81
2022/04/19 08:47:46;;;;;;;5.65;2.53;;;13.20;99.90;;;;;;5036260;28;20044;-78
2022/04/19 08:50:14;;;;;;;7.65;2.15;;;13.30;99.90;;;;;;5036961;28;20052;-80
2022/04/19 08:52:40;;;;;;;4.22;2.22;;;13.40;99.90;;;;;;5053024;28;20113;-78
2022/04/19 08:57:52;;;;;;;5.28;2.03;;;13.50;99.90;;;;;;5056837;28;20041;-79
2022/04/19 09:00:22;;;;;;;4.05;2.08;;;13.60;99.90;;;;;;5056199;28;20459;-80
2022/04/19 09:02:49;;;;;;;3.33;1.45;;;13.60;99.90;;;;;;5050985;28;20045;-79
2022/04/19 09:05:16;;;;;;;4.28;2.08;;;13.70;98.70;;;;;;5045188;28;20048;-78
2022/04/19 09:07:44;;;;;;;3.13;1.35;;;13.80;98.50;;;;;;5038716;28;20048;-80
2022/04/19 09:10:14;;;;;;;3.50;1.70;;;13.80;98.20;;;;;;5056092;28;20063;-79
2022/04/19 09:13:09;;;;;;;4.03;1.85;;;13.90;98.80;;;;;;5054354;28;20392;-79
2022/04/19 09:15:45;;;;;;;11.32;1.70;;;14.00;99.10;;;;;;5055742;28;20114;-78
2022/04/19 09:18:29;;;;;;;4.10;1.60;;;14.00;99.10;;;;;;5055794;28;20060;-80
2022/04/19 09:20:56;;;;;;;3.90;1.65;;;14.10;99.60;;;;;;5055186;28;20132;-79
2022/04/19 09:23:22;;;;;;;4.32;1.50;;;14.20;99.90;;;;;;5054310;28;20106;-78
2022/04/19 09:25:56;;;;;;;11.82;1.65;;;14.30;99.90;;;;;;5039336;28;20059;-80
2022/04/19 09:28:23;;;;;;;4.15;2.33;;;14.40;99.90;;;;;;5036080;28;20053;-81
2022/04/19 09:30:57;;;;;;;3.88;1.52;;;14.40;99.00;;;;;;5025846;28;20052;-79
2022/04/19 09:33:24;;;;;;;3.92;1.95;;;14.40;98.80;;;;;;5054193;28;20036;-78
2022/04/19 09:35:56;;;;;;;3.85;2.17;;;14.60;98.40;;;;;;5034444;28;20047;-82
2022/04/19 09:38:42;;;;;;;2.75;1.73;;;14.80;98.50;;;;;;5051645;28;20072;-80
2022/04/19 09:41:32;;;;;;;4.85;2.00;;;14.60;98.80;;;;;;5054615;28;20044;-79
2022/04/19 09:44:12;;;;;;;3.25;1.60;;;14.90;98.00;;;;;;5038069;28;20079;-80
2022/04/19 09:46:38;;;;;;;3.72;1.98;;;14.90;99.20;;;;;;5040807;28;20057;-79
2022/04/19 09:49:04;;;;;;;6.65;2.10;;;15.10;99.90;;;;;;5040027;28;20387;-78
2022/04/19 09:51:35;;;;;;;3.92;2.13;;;15.20;99.70;;;;;;5054037;28;20045;-83
2022/04/19 09:54:01;;;;;;;4.60;2.00;;;15.20;98.80;;;;;;5038163;28;20056;-84
2022/04/19 09:56:36;;;;;;;5.65;2.40;;;15.40;99.30;;;;;;5062718;28;20032;-83
2022/04/19 09:59:03;;;;;;;5.65;2.00;;;15.30;98.90;;;;;;5039797;28;20061;-83
2022/04/19 10:09:36;;;;;;;3.83;2.03;;;15.60;98.50;;;;;;5052850;28;19924;-81
2022/04/19 10:12:07;;;;;;;8.77;2.22;;;15.80;98.50;;;;;;5042645;28;20052;-80
2022/04/19 10:14:34;;;;;;;3.00;1.90;;;15.90;98.70;;;;;;5050399;28;20045;-81
2022/04/19 10:17:00;;;;;;;5.68;1.80;;;16.10;98.60;;;;;;5055564;28;20024;-81
2022/04/19 10:19:29;;;;;;;2.78;1.90;;;16.20;98.50;;;;;;5024555;28;20459;-81
2022/04/19 10:21:58;;;;;;;6.82;2.25;;;16.10;97.70;;;;;;5031581;28;20033;-82
2022/04/19 10:24:27;;;;;;;3.30;1.83;;;16.30;98.00;;;;;;5067286;28;20390;-81
2022/04/19 10:26:53;;;;;;;3.33;1.80;;;16.30;97.10;;;;;;5052493;28;20048;-81
2022/04/19 10:29:26;;;;;;;5.78;2.00;;;16.40;96.50;;;;;;5067275;28;20486;-81
2022/04/19 10:32:06;;;;;;;6.50;2.13;;;16.40;96.80;;;;;;5029139;28;20052;-81
2022/04/19 10:34:36;;;;;;;3.67;1.88;;;16.70;97.40;;;;;;5034273;28;20052;-80
2022/04/19 10:37:23;;;;;;;2.78;2.00;;;16.70;96.50;;;;;;5035434;28;20388;-78
2022/04/19 10:39:52;;;;;;;7.93;1.83;;;16.90;97.40;;;;;;5031834;28;20080;-82
2022/04/19 10:42:36;;;;;;;4.30;2.00;;;17.10;96.30;;;;;;5050525;28;20124;-81
2022/04/19 10:45:14;;;;;;;2.75;2.20;;;17.30;96.00;;;;;;5034472;28;20059;-85
2022/04/19 10:47:58;;;;;;;2.17;1.52;;;17.60;95.60;;;;;;5046412;28;20067;-83
2022/04/19 10:50:33;;;;;;;4.03;2.00;;;17.70;95.60;;;;;;5043974;28;20033;-82
2022/04/19 10:52:59;;;;;;;;;;;17.50;94.90;;;;;;5031156;28;20044;-83
2022/04/19 10:55:27;;;;;;;4.78;2.10;;;17.60;93.70;;;;;;5030957;28;20291;-82
2022/04/19 10:58:23;;;;;;;3.05;2.08;;;17.80;94.70;;;;;;5029227;28;20088;-82
2022/04/19 11:00:59;;;;;;;5.07;2.15;;;18.00;94.80;;;;;;5064303;28;20970;-82
2022/04/19 11:03:25;;;;;;;4.15;2.33;;;18.20;94.80;;;;;;5046900;28;20798;-82
2022/04/19 11:05:52;;;;;;;2.65;1.90;;;18.10;94.50;;;;;;5035025;28;20060;-82
2022/04/19 11:08:30;;;;;;;3.20;2.15;;;18.40;93.80;;;;;;5064404;28;20088;-81
2022/04/19 11:10:55;;;;;;;3.60;2.40;;;18.60;95.20;;;;;;5065849;28;20383;-82
2022/04/19 11:13:22;;;;;;;4.57;2.28;;;18.60;92.10;;;;;;5059184;28;20113;-83
2022/04/19 11:15:58;;;;;;;3.05;2.30;;;19.00;94.20;;;;;;5055763;28;20040;-83
2022/04/19 11:21:56;;;;;;;4.53;2.08;;;19.10;94.30;;;;;;5092655;28;20135;-84
2022/04/19 11:24:59;;;;;;;321.25;23.52;;;19.20;93.10;;;;;;5035844;28;20483;-84
2022/04/19 11:27:54;;;;;;;13.88;3.08;;;19.30;92.00;;;;;;5035785;28;20041;-85
2022/04/19 11:30:20;;;;;;;5.28;2.20;;;19.30;91.90;;;;;;5034087;28;20040;-85
2022/04/19 11:32:52;;;;;;;3.13;2.40;;;19.30;90.80;;;;;;5052899;28;20115;-85
2022/04/19 11:35:18;;;;;;;3.42;2.00;;;19.60;91.40;;;;;;5028807;28;20040;-85
2022/04/19 11:37:45;;;;;;;4.80;1.88;;;19.30;88.10;;;;;;5035305;28;20052;-83
2022/04/19 11:49:04;;;;;;;2.17;1.60;;;19.40;85.90;;;;;;5048594;28;20083;-83
2022/04/19 11:51:32;;;;;;;4.05;2.20;;;19.80;87.90;;;;;;5030843;28;20407;-85
2022/04/19 11:53:57;;;;;;;3.58;2.00;;;19.50;87.30;;;;;;5032850;28;20479;-81
2022/04/19 11:56:24;;;;;;;2.67;2.00;;;19.60;84.50;;;;;;5037783;28;20035;-83
2022/04/19 11:58:52;;;;;;;5.65;2.20;;;19.70;84.30;;;;;;5029632;28;20048;-84
2022/04/19 12:01:18;;;;;;;4.00;2.20;;;19.70;83.90;;;;;;5034789;28;20095;-82
2022/04/19 12:03:44;;;;;;;2.17;1.80;;;19.50;83.30;;;;;;5033485;28;20072;-79
2022/04/19 12:06:21;;;;;;;7.28;2.15;;;19.50;84.30;;;;;;5051946;28;20071;-79
2022/04/19 12:08:52;;;;;;;4.72;1.95;;;19.70;83.40;;;;;;5046684;28;20403;-78
2022/04/19 12:11:26;;;;;;;3.88;2.35;;;20.00;80.30;;;;;;5034062;28;20501;-79
2022/04/19 12:13:52;;;;;;;9.85;2.30;;;19.90;82.00;;;;;;5067480;28;20101;-79
2022/04/19 12:16:30;;;;;;;3.00;2.03;;;19.90;84.80;;;;;;5050263;28;20032;-77
2022/04/19 12:18:59;;;;;;;2.78;2.30;;;19.90;83.10;;;;;;5033849;28;20056;-81
2022/04/19 12:21:46;;;;;;;2.90;1.73;;;20.00;83.30;;;;;;5046979;28;20090;-78
2022/04/19 12:24:23;;;;;;;2.72;1.90;;;20.40;85.30;;;;;;5039862;28;20044;-81
2022/04/19 12:27:03;;;;;;;2.58;1.80;;;20.10;83.70;;;;;;5051478;28;20256;-83
2022/04/19 12:29:29;;;;;;;2.78;1.50;;;20.30;81.00;;;;;;5071692;28;20058;-81
2022/04/19 12:32:00;;;;;;;5.10;2.30;;;20.10;80.80;;;;;;5059435;28;20041;-80
2022/04/19 12:34:37;;;;;;;4.35;2.13;;;20.10;80.70;;;;;;5026819;28;20052;-79
2022/04/19 12:37:14;;;;;;;4.53;1.90;;;20.40;83.30;;;;;;5042168;28;20088;-79
2022/04/19 12:39:40;;;;;;;3.25;2.30;;;20.70;83.60;;;;;;5038053;28;20143;-79
2022/04/19 12:42:11;;;;;;;3.80;2.33;;;20.70;81.40;;;;;;5054134;28;20063;-82
2022/04/19 12:44:38;;;;;;;3.08;2.42;;;20.80;79.70;;;;;;5037504;28;20093;-81
2022/04/19 12:47:14;;;;;;;3.22;2.15;;;20.70;79.20;;;;;;5035849;28;20049;-83
2022/04/19 12:49:46;;;;;;;4.03;2.00;;;20.80;82.00;;;;;;5051865;28;20063;-82
2022/04/19 12:52:15;;;;;;;2.90;2.00;;;20.90;80.70;;;;;;5052762;28;20032;-79
2022/04/19 12:54:50;;;;;;;4.68;2.10;;;20.70;78.60;;;;;;5050376;28;20047;-81
2022/04/19 12:57:23;;;;;;;4.72;2.15;;;20.90;78.80;;;;;;5035378;28;20056;-82
2022/04/19 12:59:50;;;;;;;9.55;2.22;;;20.70;79.90;;;;;;5053335;28;20384;-83
2022/04/19 13:02:18;;;;;;;3.30;2.20;;;20.70;77.70;;;;;;5037698;28;20059;-82
2022/04/19 13:04:45;;;;;;;2.40;2.13;;;20.60;79.30;;;;;;5030860;28;20052;-80
2022/04/19 13:12:44;;;;;;;2.88;2.03;;;20.60;76.90;;;;;;5042032;28;20040;-82
2022/04/19 13:15:17;;;;;;;2.75;2.00;;;21.00;79.00;;;;;;5052944;28;20060;-84
2022/04/19 13:17:43;;;;;;;3.53;2.15;;;21.40;77.80;;;;;;5038831;28;20055;-81
2022/04/19 13:20:10;;;;;;;5.57;2.20;;;21.50;76.70;;;;;;5035548;28;20100;-87
2022/04/19 13:22:39;;;;;;;3.92;2.53;;;21.50;77.80;;;;;;5049387;28;20359;-84
2022/04/19 13:25:07;;;;;;;4.63;2.28;;;21.40;74.80;;;;;;5048338;28;20148;-83
2022/04/19 13:27:36;;;;;;;3.28;2.53;;;21.60;73.70;;;;;;5052761;28;20482;-84
2022/04/19 13:30:06;;;;;;;3.30;2.70;;;21.30;73.40;;;;;;5038231;28;20355;-83
2022/04/19 13:32:33;;;;;;;3.85;2.78;;;21.50;75.20;;;;;;5054001;28;20067;-83
2022/04/19 13:34:58;;;;;;;4.63;2.50;;;21.20;71.60;;;;;;5039529;28;20052;-85
2022/04/19 13:40:09;;;;;;;4.25;2.70;;;21.30;72.40;;;;;;5053687;28;20036;-83
2022/04/19 13:42:35;;;;;;;7.78;2.58;;;21.60;73.50;;;;;;5055396;28;20040;-83
2022/04/19 13:45:00;;;;;;;31.23;4.57;;;21.20;72.80;;;;;;5038259;28;20610;-83
2022/04/19 13:47:27;;;;;;;6.32;2.70;;;21.50;73.70;;;;;;5033887;28;20095;-86